Fred V. Morrone — WDA8350 — position and weather

sailwx.info

Track history (hours):
 
Tides and Currents Weather Stations Pressure Air Temp Water Temp Dewpoint Dewpoint Depression Visibility Wind Speed Wind Dir Waves Ship Positions

Fred V. Morrone

Owner: PORT IMPERIAL FERRY CORP, WEEHAWKEN, NJ. More information available from US FCC via Universal Licensing System and Coast Guard Vessel Documentation Center.

Last reported at 2018-Jun-24 18:28 UTC. Time now 2018-Jun-24 18:50 UTC.
Position N 40°46' W 074°00'.

Length 21 m; draft 2 m.

Type: Passenger vessel. MMSI: 366853410.

Date/timePositionNaut miles runAvg speedWind from/ knotsBaromVisibWave heightAir tempDewpointWater temp
2018-Jun-24 18:28N 40°46' W 074°00'3 6.1
2018-Jun-24 18:01N 40°43' W 074°01'3 5.1
2018-Jun-24 17:28N 40°46' W 074°00'3 6.1
2018-Jun-24 17:00N 40°43' W 074°01'3 5.4
2018-Jun-24 16:30N 40°46' W 074°00'3 5.6
2018-Jun-24 16:00N 40°43' W 074°01'3 5.0
2018-Jun-24 15:26N 40°46' W 074°00'3 6.5
2018-Jun-24 15:00N 40°43' W 074°01'3 4.8
2018-Jun-24 14:25N 40°46' W 074°00'3 6.7
2018-Jun-24 14:00N 40°43' W 074°01'3 0.3
2018-Jun-24 00:32N 40°46' W 074°01'0 4.2
2018-Jun-24 00:29N 40°47' W 074°01'4 7.8
2018-Jun-24 00:00N 40°43' W 074°01'3 4.6
2018-Jun-23 23:26N 40°45' W 074°00'3 6.2
2018-Jun-23 23:01N 40°43' W 074°01'3 4.9
2018-Jun-23 22:26N 40°46' W 074°00'3 6.7
2018-Jun-23 22:00N 40°43' W 074°01'2 3.5
2018-Jun-23 21:24N 40°45' W 074°01'2 5.3
2018-Jun-23 21:01N 40°43' W 074°01'3 4.9
2018-Jun-23 20:27N 40°46' W 074°00'3 6.3
2018-Jun-23 20:00N 40°43' W 074°01'3 5.3
2018-Jun-23 19:29N 40°46' W 074°00'3 5.9
2018-Jun-23 19:00N 40°43' W 074°01'3 5.0
2018-Jun-23 18:27N 40°46' W 074°00'3 6.3
2018-Jun-23 18:01N 40°43' W 074°01'2 2.9
2018-Jun-23 17:23N 40°45' W 074°01'2 4.7
2018-Jun-23 17:00N 40°43' W 074°01'3 5.1
2018-Jun-23 16:28N 40°46' W 074°00'3 6.2
2018-Jun-23 16:00N 40°43' W 074°01'3 5.2
2018-Jun-23 15:28N 40°46' W 074°00'3 6.2
2018-Jun-23 15:01N 40°43' W 074°01'3 5.0
2018-Jun-23 14:27N 40°46' W 074°00'3 6.2
2018-Jun-23 14:01N 40°43' W 074°01'3 0.2
2018-Jun-22 23:58N 40°46' W 074°01'1 1.3
2018-Jun-22 23:24N 40°46' W 074°00'0 0.4
2018-Jun-22 22:59N 40°46' W 074°00'0 0.4
2018-Jun-22 22:27N 40°46' W 074°01'0 0.3
2018-Jun-22 21:57N 40°46' W 074°00'0 0.1
2018-Jun-22 21:25N 40°46' W 074°00'0 0.2
2018-Jun-22 20:56N 40°46' W 074°01'0 0.1
2018-Jun-22 20:25N 40°46' W 074°01'0 0.0
2018-Jun-22 14:01N 40°46' W 074°01'018.3
2018-Jun-22 14:00N 40°46' W 074°00'0 0.1
2018-Jun-22 13:28N 40°46' W 074°00'0 0.1
2018-Jun-22 12:58N 40°46' W 074°00'0 0.1
2018-Jun-22 12:29N 40°46' W 074°01'0 0.2
2018-Jun-22 11:58N 40°46' W 074°01'0 0.4
2018-Jun-22 11:28N 40°46' W 074°00'0 0.0
2018-Jun-22 10:58N 40°46' W 074°00'0 0.7
2018-Jun-22 10:27N 40°46' W 074°01'0 0.0
2018-Jun-21 23:59N 40°46' W 074°01'1 1.2
2018-Jun-21 23:27N 40°46' W 074°00'0 0.1
2018-Jun-21 22:56N 40°46' W 074°00'0 0.1
2018-Jun-21 22:25N 40°46' W 074°00'0 0.2
2018-Jun-21 21:56N 40°46' W 074°00'0 0.3
2018-Jun-21 21:26N 40°46' W 074°00'0 0.2
2018-Jun-21 20:57N 40°46' W 074°00'0 0.1
2018-Jun-21 20:25N 40°46' W 074°00'1 0.1
2018-Jun-21 14:13N 40°46' W 074°01'1 3.6
2018-Jun-21 14:01N 40°46' W 074°00'0 0.2
2018-Jun-21 13:28N 40°46' W 074°00'0 0.1
2018-Jun-21 13:00N 40°46' W 074°00'0 0.0
2018-Jun-21 12:30N 40°46' W 074°00'0 0.2
2018-Jun-21 11:58N 40°46' W 074°00'0 0.3
2018-Jun-21 11:30N 40°46' W 074°00'0 0.2
2018-Jun-21 10:58N 40°46' W 074°00'0 0.1
2018-Jun-21 10:30N 40°46' W 074°00'1 0.1
2018-Jun-21 00:01N 40°46' W 074°01'0 7.2
2018-Jun-21 00:00N 40°46' W 074°01'1 1.0
2018-Jun-20 23:26N 40°46' W 074°00'0 0.0
2018-Jun-20 22:56N 40°46' W 074°00'0 0.3
2018-Jun-20 22:28N 40°46' W 074°01'0 0.4
2018-Jun-20 21:57N 40°46' W 074°00'0 0.2
2018-Jun-20 21:27N 40°46' W 074°00'0 0.1
2018-Jun-20 20:57N 40°46' W 074°00'0 0.1
2018-Jun-20 20:26N 40°46' W 074°00'1 0.1
2018-Jun-20 14:07N 40°46' W 074°01'1 5.7
2018-Jun-20 13:59N 40°46' W 074°00'0 0.2
2018-Jun-20 13:28N 40°46' W 074°00'0 0.2
2018-Jun-20 12:59N 40°46' W 074°00'0 0.1
2018-Jun-20 12:30N 40°46' W 074°00'0 0.1
2018-Jun-20 11:59N 40°46' W 074°00'0 0.0
2018-Jun-20 11:27N 40°46' W 074°00'0 0.0
2018-Jun-20 10:59N 40°46' W 074°00'0 0.0
2018-Jun-20 10:29N 40°46' W 074°00'1 0.1
2018-Jun-19 23:59N 40°46' W 074°01'1 1.4
2018-Jun-19 23:27N 40°46' W 074°00'0 0.1
2018-Jun-19 22:57N 40°46' W 074°00'0 0.0
2018-Jun-19 22:27N 40°46' W 074°00'0 0.0
2018-Jun-19 21:58N 40°46' W 074°00'0 0.0
2018-Jun-19 21:27N 40°46' W 074°00'0 0.1
2018-Jun-19 20:57N 40°46' W 074°00'0 0.3
2018-Jun-19 20:27N 40°46' W 074°00'0 0.2
2018-Jun-19 19:58N 40°46' W 074°00'1 0.1
2018-Jun-19 14:14N 40°46' W 074°01'1 2.8
2018-Jun-19 13:59N 40°46' W 074°00'0 0.1
2018-Jun-19 13:29N 40°46' W 074°00'0 0.2
2018-Jun-19 12:59N 40°46' W 074°00'0 0.1
2018-Jun-19 12:29N 40°46' W 074°00'0 0.1
2018-Jun-19 11:59N 40°46' W 074°00'0 0.0
2018-Jun-19 11:30N 40°46' W 074°00'0 0.1
2018-Jun-19 10:58N 40°46' W 074°00'0 0.1
2018-Jun-19 10:28N 40°46' W 074°00'1 0.1
2018-Jun-19 00:00N 40°46' W 074°01'1 1.2
2018-Jun-18 23:25N 40°46' W 074°00'0 0.0
2018-Jun-18 22:55N 40°46' W 074°00'0 0.0
2018-Jun-18 22:28N 40°46' W 074°00'0 0.1
2018-Jun-18 21:57N 40°46' W 074°00'0 0.0
2018-Jun-18 21:29N 40°46' W 074°00'0 0.1
2018-Jun-18 20:57N 40°46' W 074°00'0 0.0
2018-Jun-18 20:27N 40°46' W 074°00'0 0.1
2018-Jun-18 20:00N 40°46' W 074°00'1 0.1
2018-Jun-18 14:00N 40°46' W 074°01'1 1.3
2018-Jun-18 13:27N 40°46' W 074°00'0 0.7
2018-Jun-18 12:56N 40°46' W 074°00'0 0.8
2018-Jun-18 12:29N 40°46' W 074°00'0 0.1
2018-Jun-18 11:55N 40°46' W 074°00'0 0.1
2018-Jun-18 11:24N 40°46' W 074°00'0 0.1
2018-Jun-18 10:55N 40°46' W 074°00'0 0.3
2018-Jun-18 10:24N 40°46' W 074°00'1 0.1
2018-Jun-18 00:37N 40°46' W 074°01'1 5.2
2018-Jun-18 00:28N 40°46' W 074°00'3 6.0
2018-Jun-18 00:00N 40°43' W 074°01'3 5.7
2018-Jun-17 23:30N 40°46' W 074°00'3 5.7
2018-Jun-17 23:00N 40°43' W 074°01'3 4.7
2018-Jun-17 22:25N 40°46' W 074°00'3 6.9
2018-Jun-17 22:00N 40°43' W 074°01'3 5.0
2018-Jun-17 21:26N 40°46' W 074°00'3 6.4
2018-Jun-17 21:01N 40°43' W 074°01'3 5.3
2018-Jun-17 20:30N 40°46' W 074°00'3 5.6
2018-Jun-17 20:01N 40°43' W 074°01'3 4.8
2018-Jun-17 19:27N 40°46' W 074°00'3 6.4
2018-Jun-17 19:01N 40°43' W 074°01'2 3.1
2018-Jun-17 18:23N 40°45' W 074°01'2 5.0
2018-Jun-17 18:00N 40°43' W 074°01'3 5.8
2018-Jun-17 17:31N 40°46' W 074°00'3 5.8
2018-Jun-17 17:01N 40°43' W 074°01'3 5.7
2018-Jun-17 16:31N 40°46' W 074°00'2 4.8
2018-Jun-17 15:59N 40°43' W 074°01'2 4.3
2018-Jun-17 15:26N 40°46' W 074°00'3 6.6
2018-Jun-17 15:00N 40°43' W 074°01'3 4.9
2018-Jun-17 14:27N 40°46' W 074°00'3 6.3
2018-Jun-17 14:01N 40°43' W 074°01'3 0.2
2018-Jun-17 00:28N 40°46' W 074°01'3 6.7
2018-Jun-17 00:01N 40°43' W 074°01'3 5.1
2018-Jun-16 23:28N 40°46' W 074°00'3 6.1
2018-Jun-16 23:01N 40°43' W 074°01'3 5.7
2018-Jun-16 22:31N 40°46' W 074°00'3 5.8
2018-Jun-16 22:00N 40°43' W 074°01'2 4.6
2018-Jun-16 21:30N 40°45' W 074°01'2 4.5
2018-Jun-16 21:00N 40°43' W 074°01'3 4.8
2018-Jun-16 20:26N 40°46' W 074°00'3 6.6
2018-Jun-16 20:01N 40°43' W 074°01'3 5.1
2018-Jun-16 19:28N 40°46' W 074°00'3 5.9
2018-Jun-16 19:01N 40°43' W 074°01'3 5.1
2018-Jun-16 18:28N 40°46' W 074°00'3 6.1
2018-Jun-16 18:01N 40°43' W 074°01'3 5.2
2018-Jun-16 17:28N 40°46' W 074°00'3 5.6
2018-Jun-16 17:00N 40°43' W 074°01'3 4.5
2018-Jun-16 16:26N 40°46' W 074°00'3 6.6
2018-Jun-16 16:00N 40°43' W 074°01'3 5.3
2018-Jun-16 15:28N 40°46' W 074°00'3 6.1
2018-Jun-16 15:01N 40°43' W 074°01'3 5.7
2018-Jun-16 14:30N 40°46' W 074°00'3 5.7
2018-Jun-16 14:00N 40°43' W 074°01'3 0.2
2018-Jun-16 00:01N 40°46' W 074°01'0 1.6
2018-Jun-16 00:01N 40°46' W 074°01'1 1.2
2018-Jun-15 23:26N 40°46' W 074°00'0 0.3
2018-Jun-15 22:57N 40°46' W 074°00'0 0.2
2018-Jun-15 22:28N 40°46' W 074°00'0 0.2
2018-Jun-15 21:57N 40°46' W 074°00'0 0.2
2018-Jun-15 21:27N 40°46' W 074°00'0 0.1
2018-Jun-15 20:57N 40°46' W 074°00'0 0.1
2018-Jun-15 20:26N 40°46' W 074°00'0 0.2
2018-Jun-15 20:00N 40°46' W 074°00'1 0.1
2018-Jun-15 14:01N 40°46' W 074°01'0 8.9
2018-Jun-15 14:00N 40°46' W 074°00'1 1.0
2018-Jun-15 13:27N 40°46' W 074°00'0 0.1
2018-Jun-15 12:58N 40°46' W 074°00'0 0.2
2018-Jun-15 12:30N 40°46' W 074°00'0 0.1
2018-Jun-15 11:58N 40°46' W 074°00'0 0.2
2018-Jun-15 11:29N 40°46' W 074°00'0 0.0
2018-Jun-15 10:58N 40°46' W 074°00'0 0.0
2018-Jun-15 10:28N 40°46' W 074°00'1 0.1
2018-Jun-15 00:01N 40°46' W 074°01'0 2.9
2018-Jun-15 00:00N 40°46' W 074°01'1 1.4
2018-Jun-14 23:28N 40°46' W 074°00'0 0.2
2018-Jun-14 22:57N 40°46' W 074°00'0 0.2
2018-Jun-14 22:28N 40°46' W 074°00'0 0.2
2018-Jun-14 21:57N 40°46' W 074°00'0 0.2
2018-Jun-14 21:29N 40°46' W 074°00'0 0.2
2018-Jun-14 20:57N 40°46' W 074°00'0 0.0
2018-Jun-14 20:25N 40°46' W 074°00'0 0.1
2018-Jun-14 19:58N 40°46' W 074°00'  
Track history (hours):
 
Tides and Currents Weather Stations Pressure Air Temp Water Temp Dewpoint Dewpoint Depression Visibility Wind Speed Wind Dir Waves Ship Positions

Fred V. Morrone

Owner: PORT IMPERIAL FERRY CORP, WEEHAWKEN, NJ. More information available from US FCC via Universal Licensing System and Coast Guard Vessel Documentation Center.

Last reported at 2018-Jun-24 18:28 UTC. Time now 2018-Jun-24 18:50 UTC.
Position N 40°46' W 074°00'.

Length 21 m; draft 2 m.

Type: Passenger vessel. MMSI: 366853410.

Date/timePositionNaut miles runAvg speedWind from/ knotsBaromVisibWave heightAir tempDewpointWater temp
2018-Jun-24 18:28N 40°46' W 074°00'3 6.1
2018-Jun-24 18:01N 40°43' W 074°01'3 5.1
2018-Jun-24 17:28N 40°46' W 074°00'3 6.1
2018-Jun-24 17:00N 40°43' W 074°01'3 5.4
2018-Jun-24 16:30N 40°46' W 074°00'3 5.6
2018-Jun-24 16:00N 40°43' W 074°01'3 5.0
2018-Jun-24 15:26N 40°46' W 074°00'3 6.5
2018-Jun-24 15:00N 40°43' W 074°01'3 4.8
2018-Jun-24 14:25N 40°46' W 074°00'3 6.7
2018-Jun-24 14:00N 40°43' W 074°01'3 0.3
2018-Jun-24 00:32N 40°46' W 074°01'0 4.2
2018-Jun-24 00:29N 40°47' W 074°01'4 7.8
2018-Jun-24 00:00N 40°43' W 074°01'3 4.6
2018-Jun-23 23:26N 40°45' W 074°00'3 6.2
2018-Jun-23 23:01N 40°43' W 074°01'3 4.9
2018-Jun-23 22:26N 40°46' W 074°00'3 6.7
2018-Jun-23 22:00N 40°43' W 074°01'2 3.5
2018-Jun-23 21:24N 40°45' W 074°01'2 5.3
2018-Jun-23 21:01N 40°43' W 074°01'3 4.9
2018-Jun-23 20:27N 40°46' W 074°00'3 6.3
2018-Jun-23 20:00N 40°43' W 074°01'3 5.3
2018-Jun-23 19:29N 40°46' W 074°00'3 5.9
2018-Jun-23 19:00N 40°43' W 074°01'3 5.0
2018-Jun-23 18:27N 40°46' W 074°00'3 6.3
2018-Jun-23 18:01N 40°43' W 074°01'2 2.9
2018-Jun-23 17:23N 40°45' W 074°01'2 4.7
2018-Jun-23 17:00N 40°43' W 074°01'3 5.1
2018-Jun-23 16:28N 40°46' W 074°00'3 6.2
2018-Jun-23 16:00N 40°43' W 074°01'3 5.2
2018-Jun-23 15:28N 40°46' W 074°00'3 6.2
2018-Jun-23 15:01N 40°43' W 074°01'3 5.0
2018-Jun-23 14:27N 40°46' W 074°00'3 6.2
2018-Jun-23 14:01N 40°43' W 074°01'3 0.2
2018-Jun-22 23:58N 40°46' W 074°01'1 1.3
2018-Jun-22 23:24N 40°46' W 074°00'0 0.4
2018-Jun-22 22:59N 40°46' W 074°00'0 0.4
2018-Jun-22 22:27N 40°46' W 074°01'0 0.3
2018-Jun-22 21:57N 40°46' W 074°00'0 0.1
2018-Jun-22 21:25N 40°46' W 074°00'0 0.2
2018-Jun-22 20:56N 40°46' W 074°01'0 0.1
2018-Jun-22 20:25N 40°46' W 074°01'0 0.0
2018-Jun-22 14:01N 40°46' W 074°01'018.3
2018-Jun-22 14:00N 40°46' W 074°00'0 0.1
2018-Jun-22 13:28N 40°46' W 074°00'0 0.1
2018-Jun-22 12:58N 40°46' W 074°00'0 0.1
2018-Jun-22 12:29N 40°46' W 074°01'0 0.2
2018-Jun-22 11:58N 40°46' W 074°01'0 0.4
2018-Jun-22 11:28N 40°46' W 074°00'0 0.0
2018-Jun-22 10:58N 40°46' W 074°00'0 0.7
2018-Jun-22 10:27N 40°46' W 074°01'0 0.0
2018-Jun-21 23:59N 40°46' W 074°01'1 1.2
2018-Jun-21 23:27N 40°46' W 074°00'0 0.1
2018-Jun-21 22:56N 40°46' W 074°00'0 0.1
2018-Jun-21 22:25N 40°46' W 074°00'0 0.2
2018-Jun-21 21:56N 40°46' W 074°00'0 0.3
2018-Jun-21 21:26N 40°46' W 074°00'0 0.2
2018-Jun-21 20:57N 40°46' W 074°00'0 0.1
2018-Jun-21 20:25N 40°46' W 074°00'1 0.1
2018-Jun-21 14:13N 40°46' W 074°01'1 3.6
2018-Jun-21 14:01N 40°46' W 074°00'0 0.2
2018-Jun-21 13:28N 40°46' W 074°00'0 0.1
2018-Jun-21 13:00N 40°46' W 074°00'0 0.0
2018-Jun-21 12:30N 40°46' W 074°00'0 0.2
2018-Jun-21 11:58N 40°46' W 074°00'0 0.3
2018-Jun-21 11:30N 40°46' W 074°00'0 0.2
2018-Jun-21 10:58N 40°46' W 074°00'0 0.1
2018-Jun-21 10:30N 40°46' W 074°00'1 0.1
2018-Jun-21 00:01N 40°46' W 074°01'0 7.2
2018-Jun-21 00:00N 40°46' W 074°01'1 1.0
2018-Jun-20 23:26N 40°46' W 074°00'0 0.0
2018-Jun-20 22:56N 40°46' W 074°00'0 0.3
2018-Jun-20 22:28N 40°46' W 074°01'0 0.4
2018-Jun-20 21:57N 40°46' W 074°00'0 0.2
2018-Jun-20 21:27N 40°46' W 074°00'0 0.1
2018-Jun-20 20:57N 40°46' W 074°00'0 0.1
2018-Jun-20 20:26N 40°46' W 074°00'1 0.1
2018-Jun-20 14:07N 40°46' W 074°01'1 5.7
2018-Jun-20 13:59N 40°46' W 074°00'0 0.2
2018-Jun-20 13:28N 40°46' W 074°00'0 0.2
2018-Jun-20 12:59N 40°46' W 074°00'0 0.1
2018-Jun-20 12:30N 40°46' W 074°00'0 0.1
2018-Jun-20 11:59N 40°46' W 074°00'0 0.0
2018-Jun-20 11:27N 40°46' W 074°00'0 0.0
2018-Jun-20 10:59N 40°46' W 074°00'0 0.0
2018-Jun-20 10:29N 40°46' W 074°00'1 0.1
2018-Jun-19 23:59N 40°46' W 074°01'1 1.4
2018-Jun-19 23:27N 40°46' W 074°00'0 0.1
2018-Jun-19 22:57N 40°46' W 074°00'0 0.0
2018-Jun-19 22:27N 40°46' W 074°00'0 0.0
2018-Jun-19 21:58N 40°46' W 074°00'0 0.0
2018-Jun-19 21:27N 40°46' W 074°00'0 0.1
2018-Jun-19 20:57N 40°46' W 074°00'0 0.3
2018-Jun-19 20:27N 40°46' W 074°00'0 0.2
2018-Jun-19 19:58N 40°46' W 074°00'1 0.1
2018-Jun-19 14:14N 40°46' W 074°01'1 2.8
2018-Jun-19 13:59N 40°46' W 074°00'0 0.1
2018-Jun-19 13:29N 40°46' W 074°00'0 0.2
2018-Jun-19 12:59N 40°46' W 074°00'0 0.1
2018-Jun-19 12:29N 40°46' W 074°00'0 0.1
2018-Jun-19 11:59N 40°46' W 074°00'0 0.0
2018-Jun-19 11:30N 40°46' W 074°00'0 0.1
2018-Jun-19 10:58N 40°46' W 074°00'0 0.1
2018-Jun-19 10:28N 40°46' W 074°00'1 0.1
2018-Jun-19 00:00N 40°46' W 074°01'1 1.2
2018-Jun-18 23:25N 40°46' W 074°00'0 0.0
2018-Jun-18 22:55N 40°46' W 074°00'0 0.0
2018-Jun-18 22:28N 40°46' W 074°00'0 0.1
2018-Jun-18 21:57N 40°46' W 074°00'0 0.0
2018-Jun-18 21:29N 40°46' W 074°00'0 0.1
2018-Jun-18 20:57N 40°46' W 074°00'0 0.0
2018-Jun-18 20:27N 40°46' W 074°00'0 0.1
2018-Jun-18 20:00N 40°46' W 074°00'1 0.1
2018-Jun-18 14:00N 40°46' W 074°01'1 1.3
2018-Jun-18 13:27N 40°46' W 074°00'0 0.7
2018-Jun-18 12:56N 40°46' W 074°00'0 0.8
2018-Jun-18 12:29N 40°46' W 074°00'0 0.1
2018-Jun-18 11:55N 40°46' W 074°00'0 0.1
2018-Jun-18 11:24N 40°46' W 074°00'0 0.1
2018-Jun-18 10:55N 40°46' W 074°00'0 0.3
2018-Jun-18 10:24N 40°46' W 074°00'1 0.1
2018-Jun-18 00:37N 40°46' W 074°01'1 5.2
2018-Jun-18 00:28N 40°46' W 074°00'3 6.0
2018-Jun-18 00:00N 40°43' W 074°01'3 5.7
2018-Jun-17 23:30N 40°46' W 074°00'3 5.7
2018-Jun-17 23:00N 40°43' W 074°01'3 4.7
2018-Jun-17 22:25N 40°46' W 074°00'3 6.9
2018-Jun-17 22:00N 40°43' W 074°01'3 5.0
2018-Jun-17 21:26N 40°46' W 074°00'3 6.4
2018-Jun-17 21:01N 40°43' W 074°01'3 5.3
2018-Jun-17 20:30N 40°46' W 074°00'3 5.6
2018-Jun-17 20:01N 40°43' W 074°01'3 4.8
2018-Jun-17 19:27N 40°46' W 074°00'3 6.4
2018-Jun-17 19:01N 40°43' W 074°01'2 3.1
2018-Jun-17 18:23N 40°45' W 074°01'2 5.0
2018-Jun-17 18:00N 40°43' W 074°01'3 5.8
2018-Jun-17 17:31N 40°46' W 074°00'3 5.8
2018-Jun-17 17:01N 40°43' W 074°01'3 5.7
2018-Jun-17 16:31N 40°46' W 074°00'2 4.8
2018-Jun-17 15:59N 40°43' W 074°01'2 4.3
2018-Jun-17 15:26N 40°46' W 074°00'3 6.6
2018-Jun-17 15:00N 40°43' W 074°01'3 4.9
2018-Jun-17 14:27N 40°46' W 074°00'3 6.3
2018-Jun-17 14:01N 40°43' W 074°01'3 0.2
2018-Jun-17 00:28N 40°46' W 074°01'3 6.7
2018-Jun-17 00:01N 40°43' W 074°01'3 5.1
2018-Jun-16 23:28N 40°46' W 074°00'3 6.1
2018-Jun-16 23:01N 40°43' W 074°01'3 5.7
2018-Jun-16 22:31N 40°46' W 074°00'3 5.8
2018-Jun-16 22:00N 40°43' W 074°01'2 4.6
2018-Jun-16 21:30N 40°45' W 074°01'2 4.5
2018-Jun-16 21:00N 40°43' W 074°01'3 4.8
2018-Jun-16 20:26N 40°46' W 074°00'3 6.6
2018-Jun-16 20:01N 40°43' W 074°01'3 5.1
2018-Jun-16 19:28N 40°46' W 074°00'3 5.9
2018-Jun-16 19:01N 40°43' W 074°01'3 5.1
2018-Jun-16 18:28N 40°46' W 074°00'3 6.1
2018-Jun-16 18:01N 40°43' W 074°01'3 5.2
2018-Jun-16 17:28N 40°46' W 074°00'3 5.6
2018-Jun-16 17:00N 40°43' W 074°01'3 4.5
2018-Jun-16 16:26N 40°46' W 074°00'3 6.6
2018-Jun-16 16:00N 40°43' W 074°01'3 5.3
2018-Jun-16 15:28N 40°46' W 074°00'3 6.1
2018-Jun-16 15:01N 40°43' W 074°01'3 5.7
2018-Jun-16 14:30N 40°46' W 074°00'3 5.7
2018-Jun-16 14:00N 40°43' W 074°01'3 0.2
2018-Jun-16 00:01N 40°46' W 074°01'0 1.6
2018-Jun-16 00:01N 40°46' W 074°01'1 1.2
2018-Jun-15 23:26N 40°46' W 074°00'0 0.3
2018-Jun-15 22:57N 40°46' W 074°00'0 0.2
2018-Jun-15 22:28N 40°46' W 074°00'0 0.2
2018-Jun-15 21:57N 40°46' W 074°00'0 0.2
2018-Jun-15 21:27N 40°46' W 074°00'0 0.1
2018-Jun-15 20:57N 40°46' W 074°00'0 0.1
2018-Jun-15 20:26N 40°46' W 074°00'0 0.2
2018-Jun-15 20:00N 40°46' W 074°00'1 0.1
2018-Jun-15 14:01N 40°46' W 074°01'0 8.9
2018-Jun-15 14:00N 40°46' W 074°00'1 1.0
2018-Jun-15 13:27N 40°46' W 074°00'0 0.1
2018-Jun-15 12:58N 40°46' W 074°00'0 0.2
2018-Jun-15 12:30N 40°46' W 074°00'0 0.1
2018-Jun-15 11:58N 40°46' W 074°00'0 0.2
2018-Jun-15 11:29N 40°46' W 074°00'0 0.0
2018-Jun-15 10:58N 40°46' W 074°00'0 0.0
2018-Jun-15 10:28N 40°46' W 074°00'1 0.1
2018-Jun-15 00:01N 40°46' W 074°01'0 2.9
2018-Jun-15 00:00N 40°46' W 074°01'1 1.4
2018-Jun-14 23:28N 40°46' W 074°00'0 0.2
2018-Jun-14 22:57N 40°46' W 074°00'0 0.2
2018-Jun-14 22:28N 40°46' W 074°00'0 0.2
2018-Jun-14 21:57N 40°46' W 074°00'0 0.2
2018-Jun-14 21:29N 40°46' W 074°00'0 0.2
2018-Jun-14 20:57N 40°46' W 074°00'0 0.0
2018-Jun-14 20:25N 40°46' W 074°00'0 0.1
2018-Jun-14 19:58N 40°46' W 074°00'  

Dump ship's entire track history